createdAt,value
2023-05-21T00:00:12.959Z,18.66
2023-05-21T00:02:43.299Z,18.64
2023-05-21T00:05:13.751Z,18.63
2023-05-21T00:07:41.680Z,18.64
2023-05-21T00:10:09.246Z,18.64
2023-05-21T00:12:36.185Z,18.67
2023-05-21T00:15:03.379Z,18.63
2023-05-21T00:17:32.692Z,18.62
2023-05-21T00:20:00.259Z,18.65
2023-05-21T00:22:27.198Z,18.66
2023-05-21T00:24:54.019Z,18.64
2023-05-21T00:27:20.958Z,18.63
2023-05-21T00:29:48.105Z,18.62
2023-05-21T00:32:15.018Z,18.59
2023-05-21T00:34:42.496Z,18.56
2023-05-21T00:37:10.138Z,18.56
2023-05-21T00:39:37.178Z,18.55
2023-05-21T00:42:04.373Z,18.54
2023-05-21T00:44:34.418Z,18.52
2023-05-21T00:47:02.930Z,18.51
2023-05-21T00:49:30.833Z,18.47
2023-05-21T00:52:01.513Z,18.45
2023-05-21T00:54:29.581Z,18.40
2023-05-21T00:56:58.338Z,18.37
2023-05-21T00:59:25.843Z,18.36
2023-05-21T01:01:56.940Z,18.31
2023-05-21T01:04:24.751Z,18.27
2023-05-21T01:06:53.628Z,18.27
2023-05-21T01:09:21.339Z,18.22
2023-05-21T01:11:50.660Z,18.24
2023-05-21T01:14:19.043Z,18.22
2023-05-21T01:16:48.529Z,18.20
2023-05-21T01:19:18.508Z,18.17
2023-05-21T01:22:04.437Z,18.08
2023-05-21T01:24:33.234Z,18.10
2023-05-21T01:27:03.785Z,18.06
2023-05-21T01:29:30.681Z,18.06
2023-05-21T01:32:27.935Z,18.02
2023-05-21T01:35:04.455Z,18.02
2023-05-21T01:37:45.584Z,17.97
2023-05-21T01:40:26.128Z,17.94
2023-05-21T01:42:53.459Z,17.96
2023-05-21T01:45:22.653Z,17.96
2023-05-21T01:47:53.399Z,17.90
2023-05-21T01:50:22.092Z,17.94
2023-05-21T01:52:54.631Z,17.91
2023-05-21T01:55:25.063Z,17.92
2023-05-21T01:57:53.890Z,17.94
2023-05-21T02:00:22.715Z,17.90
2023-05-21T02:02:50.182Z,17.88
2023-05-21T02:05:17.528Z,17.89
2023-05-21T02:07:46.164Z,17.86
2023-05-21T02:10:13.184Z,17.85
2023-05-21T02:12:40.455Z,17.84
2023-05-21T02:15:09.960Z,17.82
2023-05-21T02:17:38.901Z,17.84
2023-05-21T02:20:13.874Z,17.77
2023-05-21T02:22:45.549Z,17.80
2023-05-21T02:25:14.498Z,17.74
2023-05-21T02:27:42.928Z,17.77
2023-05-21T02:30:12.139Z,17.70
2023-05-21T02:32:42.984Z,17.68
2023-05-21T02:35:12.060Z,17.67
2023-05-21T02:37:44.189Z,17.65
2023-05-21T02:40:12.413Z,17.61
2023-05-21T02:42:41.523Z,17.62
2023-05-21T02:45:12.918Z,17.58
2023-05-21T02:47:42.458Z,17.55
2023-05-21T02:50:10.048Z,17.54
2023-05-21T02:52:44.326Z,17.54
2023-05-21T02:55:11.394Z,17.51
2023-05-21T02:57:38.243Z,17.49
2023-05-21T03:00:09.025Z,17.55
2023-05-21T03:02:37.270Z,17.51
2023-05-21T03:05:05.303Z,17.47
2023-05-21T03:07:34.104Z,17.49
2023-05-21T03:10:01.728Z,17.45
2023-05-21T03:12:34.080Z,17.41
2023-05-21T03:15:01.534Z,17.41
2023-05-21T03:17:34.478Z,17.39
2023-05-21T03:20:01.721Z,17.40
2023-05-21T03:22:29.895Z,17.40
2023-05-21T03:24:58.336Z,17.43
2023-05-21T03:27:26.013Z,17.42
2023-05-21T03:29:55.923Z,17.43
2023-05-21T03:32:23.864Z,17.46
2023-05-21T03:34:51.408Z,17.49
2023-05-21T03:37:19.149Z,17.50
2023-05-21T03:39:46.068Z,17.49
2023-05-21T03:42:14.288Z,17.54
2023-05-21T03:44:46.607Z,17.55
2023-05-21T03:47:46.322Z,17.54
2023-05-21T03:50:13.500Z,17.56
2023-05-21T03:52:40.797Z,17.62
2023-05-21T03:55:08.250Z,17.64
2023-05-21T03:57:35.977Z,17.65
2023-05-21T04:00:02.954Z,17.70
2023-05-21T04:02:33.444Z,17.77
2023-05-21T04:05:00.697Z,17.85
2023-05-21T04:07:30.071Z,17.92
2023-05-21T04:09:57.041Z,17.98
2023-05-21T04:12:24.076Z,17.96
2023-05-21T04:14:51.680Z,18.06
2023-05-21T04:17:19.336Z,18.10
2023-05-21T04:19:46.650Z,18.14
2023-05-21T04:22:14.033Z,18.23
2023-05-21T04:24:40.999Z,18.26
2023-05-21T04:27:16.798Z,18.36
2023-05-21T04:29:44.367Z,18.47
2023-05-21T04:32:15.237Z,18.59
2023-05-21T04:34:43.052Z,18.66
2023-05-21T04:37:10.351Z,18.79
2023-05-21T04:39:37.443Z,18.95
2023-05-21T04:42:04.994Z,19.12
2023-05-21T04:44:31.962Z,19.27
2023-05-21T04:47:02.289Z,19.48
2023-05-21T04:49:30.137Z,19.76
2023-05-21T04:51:57.208Z,19.95
2023-05-21T04:54:24.156Z,20.10
2023-05-21T04:56:51.052Z,20.21
2023-05-21T04:59:18.794Z,20.22
2023-05-21T05:01:47.582Z,20.41
2023-05-21T05:04:14.432Z,20.54
2023-05-21T05:06:41.333Z,20.70
2023-05-21T05:09:08.775Z,20.80
2023-05-21T05:11:36.043Z,20.98
2023-05-21T05:14:04.247Z,21.08
2023-05-21T05:16:31.334Z,21.18
2023-05-21T05:18:58.482Z,21.09
2023-05-21T05:21:26.187Z,21.21
2023-05-21T05:23:53.541Z,21.41
2023-05-21T05:26:24.587Z,21.62
2023-05-21T05:28:51.683Z,21.76
2023-05-21T05:31:19.119Z,21.89
2023-05-21T05:33:47.445Z,22.17
2023-05-21T05:36:14.603Z,22.30
2023-05-21T05:38:41.653Z,22.76
2023-05-21T05:41:08.620Z,23.49
2023-05-21T05:43:35.627Z,24.76
2023-05-21T05:46:02.576Z,26.31
2023-05-21T05:48:29.535Z,27.37
2023-05-21T05:50:59.452Z,28.14
2023-05-21T05:53:26.870Z,28.69
2023-05-21T05:55:54.526Z,28.82
2023-05-21T05:58:21.536Z,29.59
2023-05-21T06:00:58.167Z,30.65
2023-05-21T06:03:26.911Z,30.68
2023-05-21T06:05:54.414Z,30.27
2023-05-21T06:08:21.659Z,29.99
2023-05-21T06:10:48.473Z,30.02
2023-05-21T06:13:16.383Z,30.23
2023-05-21T06:15:43.527Z,30.46
2023-05-21T06:18:11.917Z,30.02
2023-05-21T06:20:39.061Z,30.31
2023-05-21T06:23:07.460Z,30.64
2023-05-21T06:25:34.882Z,30.58
2023-05-21T06:28:02.100Z,30.66
2023-05-21T06:30:30.739Z,30.88
2023-05-21T06:32:59.640Z,31.03
2023-05-21T06:35:26.782Z,31.04
2023-05-21T06:37:53.645Z,31.12
2023-05-21T06:40:22.105Z,31.82
2023-05-21T06:42:52.033Z,31.95
2023-05-21T06:45:37.460Z,32.11
2023-05-21T06:48:17.590Z,32.18
2023-05-21T06:50:44.881Z,32.26
2023-05-21T06:53:13.976Z,32.05
2023-05-21T06:55:41.029Z,31.83
2023-05-21T06:58:15.892Z,31.56
2023-05-21T07:00:42.751Z,31.63
2023-05-21T07:03:10.353Z,31.79
2023-05-21T07:05:37.679Z,31.78
2023-05-21T07:08:05.822Z,31.61
2023-05-21T07:10:32.789Z,31.42
2023-05-21T07:12:59.719Z,31.27
2023-05-21T07:15:27.236Z,30.68
2023-05-21T07:17:54.428Z,30.89
2023-05-21T07:20:21.702Z,31.08
2023-05-21T07:22:51.874Z,31.24
2023-05-21T07:25:19.889Z,31.46
2023-05-21T07:27:47.833Z,31.49
2023-05-21T07:30:15.841Z,30.87
2023-05-21T07:32:42.899Z,30.83
2023-05-21T07:35:09.978Z,30.97
2023-05-21T07:37:37.086Z,30.98
2023-05-21T07:40:06.403Z,30.87
2023-05-21T07:42:34.982Z,30.81
2023-05-21T07:45:02.874Z,30.51
2023-05-21T07:47:34.915Z,29.37
2023-05-21T07:50:01.895Z,30.63
2023-05-21T07:52:31.551Z,30.91
2023-05-21T07:55:01.646Z,31.00
2023-05-21T07:57:32.021Z,30.70
2023-05-21T08:00:06.992Z,30.32
2023-05-21T08:02:43.081Z,30.22
2023-05-21T08:05:13.278Z,30.42
2023-05-21T08:07:40.863Z,30.44
2023-05-21T08:10:09.123Z,30.39
2023-05-21T08:12:36.140Z,30.29
2023-05-21T08:15:04.823Z,30.27
2023-05-21T08:17:37.168Z,29.99
2023-05-21T08:20:05.706Z,29.89
2023-05-21T08:22:34.647Z,29.91
2023-05-21T08:25:01.667Z,29.91
2023-05-21T08:27:30.592Z,29.64
2023-05-21T08:29:58.424Z,29.41
2023-05-21T08:32:26.447Z,29.34
2023-05-21T08:34:54.550Z,29.47
2023-05-21T08:37:51.978Z,29.36
2023-05-21T08:40:27.220Z,29.39
2023-05-21T08:42:54.472Z,29.47
2023-05-21T08:45:47.686Z,29.90
2023-05-21T08:48:17.851Z,30.04
2023-05-21T08:50:46.393Z,30.08
2023-05-21T08:53:36.139Z,29.99
2023-05-21T08:56:13.188Z,30.06
2023-05-21T08:58:48.918Z,30.04
2023-05-21T09:01:20.387Z,29.90
2023-05-21T09:04:01.775Z,30.06
2023-05-21T09:06:35.513Z,29.51
2023-05-21T09:09:32.561Z,29.72
2023-05-21T09:11:59.674Z,29.91
2023-05-21T09:14:27.954Z,29.74
2023-05-21T09:17:01.614Z,29.81
2023-05-21T09:19:30.400Z,29.62
2023-05-21T09:22:03.794Z,29.24
2023-05-21T09:24:35.764Z,29.25
2023-05-21T09:27:06.917Z,28.95
2023-05-21T09:29:35.597Z,28.87
2023-05-21T09:32:08.002Z,28.88
2023-05-21T09:34:38.356Z,28.76
2023-05-21T09:37:16.465Z,28.51
2023-05-21T09:39:43.840Z,28.25
2023-05-21T09:42:10.951Z,28.33
2023-05-21T09:44:37.998Z,28.41
2023-05-21T09:47:05.629Z,28.16
2023-05-21T09:49:32.698Z,27.97
2023-05-21T09:52:00.329Z,28.00
2023-05-21T09:54:36.207Z,27.89
2023-05-21T09:57:03.274Z,27.65
2023-05-21T09:59:38.175Z,27.39
2023-05-21T10:02:19.879Z,27.28
2023-05-21T10:04:50.292Z,27.44
2023-05-21T10:07:27.785Z,27.40
2023-05-21T10:09:56.886Z,27.05
2023-05-21T10:12:27.817Z,26.73
2023-05-21T10:15:04.042Z,26.48
2023-05-21T10:17:35.478Z,26.44
2023-05-21T10:20:03.560Z,26.50
2023-05-21T10:22:32.429Z,26.58
2023-05-21T10:25:01.144Z,26.60
2023-05-21T10:27:32.345Z,26.46
2023-05-21T10:30:00.797Z,26.32
2023-05-21T10:32:28.562Z,26.20
2023-05-21T10:34:56.263Z,26.21
2023-05-21T10:37:27.708Z,26.19
2023-05-21T10:39:55.928Z,26.24
2023-05-21T10:43:01.859Z,26.16
2023-05-21T10:46:06.647Z,26.39
2023-05-21T10:49:11.036Z,26.46
2023-05-21T10:51:58.008Z,26.53
2023-05-21T10:55:00.920Z,26.51
2023-05-21T10:57:49.026Z,26.48
2023-05-21T11:00:18.201Z,26.62
2023-05-21T11:02:46.240Z,26.58
2023-05-21T11:05:13.271Z,26.56
2023-05-21T11:07:57.201Z,26.40
2023-05-21T11:10:32.264Z,26.26
2023-05-21T11:13:26.485Z,26.13
2023-05-21T11:16:23.449Z,26.12
2023-05-21T11:18:50.454Z,26.30
2023-05-21T11:21:19.034Z,26.25
2023-05-21T11:23:53.833Z,26.06
2023-05-21T11:26:23.439Z,26.07
2023-05-21T11:29:08.884Z,26.08
2023-05-21T11:31:40.104Z,26.16
2023-05-21T11:34:28.646Z,25.97
2023-05-21T11:37:32.341Z,25.85
2023-05-21T11:40:34.796Z,25.93
2023-05-21T11:43:05.145Z,25.95
2023-05-21T11:45:33.382Z,26.04
2023-05-21T11:48:01.727Z,26.17
2023-05-21T11:50:30.921Z,26.16
2023-05-21T11:53:02.047Z,26.11
2023-05-21T11:55:31.822Z,26.18
2023-05-21T11:57:59.605Z,26.23
2023-05-21T12:00:26.643Z,26.19
2023-05-21T12:02:55.940Z,26.11
2023-05-21T12:05:24.544Z,26.13
2023-05-21T12:07:51.553Z,26.16
2023-05-21T12:10:24.435Z,26.19
2023-05-21T12:12:56.181Z,26.40
2023-05-21T12:15:26.656Z,26.53
2023-05-21T12:17:55.070Z,26.48
2023-05-21T12:20:23.475Z,26.39
2023-05-21T12:22:50.741Z,26.31
2023-05-21T12:25:21.704Z,26.18
2023-05-21T12:27:58.409Z,26.22
2023-05-21T12:30:26.393Z,26.36
2023-05-21T12:32:53.453Z,26.44
2023-05-21T12:35:24.189Z,26.41
2023-05-21T12:37:52.746Z,26.49
2023-05-21T12:40:21.024Z,26.50
2023-05-21T12:42:48.193Z,26.57
2023-05-21T12:45:18.864Z,26.58
2023-05-21T12:47:50.528Z,26.49
2023-05-21T12:50:21.268Z,26.40
2023-05-21T12:52:50.962Z,26.44
2023-05-21T12:55:18.180Z,26.45
2023-05-21T12:57:45.733Z,26.51
2023-05-21T13:00:13.179Z,26.59
2023-05-21T13:02:42.010Z,26.61
2023-05-21T13:05:11.533Z,26.67
2023-05-21T13:07:40.080Z,26.64
2023-05-21T13:10:09.032Z,26.50
2023-05-21T13:12:36.125Z,26.48
2023-05-21T13:15:05.057Z,26.36
2023-05-21T13:17:38.582Z,26.15
2023-05-21T13:20:15.219Z,26.02
2023-05-21T13:22:51.232Z,26.07
2023-05-21T13:25:28.820Z,26.14
2023-05-21T13:27:56.788Z,26.18
2023-05-21T13:30:24.313Z,26.29
2023-05-21T13:32:52.200Z,26.39
2023-05-21T13:35:19.739Z,26.47
2023-05-21T13:37:46.677Z,26.51
2023-05-21T13:40:15.818Z,26.55
2023-05-21T13:42:48.817Z,26.61
2023-05-21T13:45:19.244Z,26.51
2023-05-21T13:47:47.330Z,26.46
2023-05-21T13:50:14.864Z,26.46
2023-05-21T13:52:42.299Z,26.46
2023-05-21T13:55:18.602Z,26.49
2023-05-21T13:57:50.646Z,26.56
2023-05-21T14:00:18.024Z,26.50
2023-05-21T14:02:48.576Z,26.45
2023-05-21T14:05:15.739Z,26.43
2023-05-21T14:07:43.040Z,26.44
2023-05-21T14:10:13.068Z,26.43
2023-05-21T14:12:52.838Z,26.52
2023-05-21T14:15:22.940Z,26.61
2023-05-21T14:18:19.940Z,26.79
2023-05-21T14:21:00.347Z,27.05
2023-05-21T14:23:42.997Z,27.17
2023-05-21T14:26:18.736Z,27.09
2023-05-21T14:29:02.365Z,27.10
2023-05-21T14:31:31.019Z,26.70
2023-05-21T14:34:10.271Z,27.03
2023-05-21T14:36:40.198Z,27.10
2023-05-21T14:39:08.133Z,27.07
2023-05-21T14:41:44.879Z,26.87
2023-05-21T14:44:11.827Z,26.80
2023-05-21T14:46:39.768Z,26.66
2023-05-21T14:49:10.365Z,26.62
2023-05-21T14:51:40.739Z,26.51
2023-05-21T14:54:07.601Z,26.46
2023-05-21T14:56:39.960Z,26.42
2023-05-21T14:59:17.687Z,26.38
2023-05-21T15:01:48.854Z,26.32
2023-05-21T15:04:21.222Z,26.35
2023-05-21T15:06:56.720Z,26.36
2023-05-21T15:09:26.571Z,26.41
2023-05-21T15:12:19.166Z,26.34
2023-05-21T15:14:46.332Z,26.39
2023-05-21T15:17:14.791Z,26.39
2023-05-21T15:20:10.791Z,26.33
2023-05-21T15:22:43.380Z,26.40
2023-05-21T15:25:14.242Z,26.41
2023-05-21T15:27:45.372Z,26.47
2023-05-21T15:30:13.002Z,26.47
2023-05-21T15:32:48.910Z,26.45
2023-05-21T15:35:19.137Z,26.57
2023-05-21T15:37:46.620Z,26.58
2023-05-21T15:40:13.908Z,26.66
2023-05-21T15:42:40.961Z,26.67
2023-05-21T15:45:11.004Z,26.67
2023-05-21T15:47:42.870Z,26.64
2023-05-21T15:50:10.964Z,26.57
2023-05-21T15:52:38.087Z,26.63
2023-05-21T15:55:05.329Z,26.61
2023-05-21T15:57:33.297Z,26.63
2023-05-21T16:00:00.197Z,26.62
2023-05-21T16:02:28.095Z,26.57
2023-05-21T16:04:58.097Z,26.45
2023-05-21T16:07:27.428Z,26.45
2023-05-21T16:09:58.361Z,26.45
2023-05-21T16:12:28.155Z,26.47
2023-05-21T16:14:55.069Z,26.40
2023-05-21T16:17:22.840Z,26.33
2023-05-21T16:19:53.122Z,26.25
2023-05-21T16:22:31.186Z,26.24
2023-05-21T16:24:58.128Z,26.21
2023-05-21T16:27:28.666Z,26.12
2023-05-21T16:29:56.241Z,26.08
2023-05-21T16:32:24.929Z,26.07
2023-05-21T16:34:53.598Z,26.07
2023-05-21T16:37:22.398Z,26.04
2023-05-21T16:39:49.464Z,26.06
2023-05-21T16:42:16.300Z,26.06
2023-05-21T16:44:44.165Z,26.06
2023-05-21T16:47:13.956Z,26.10
2023-05-21T16:49:48.251Z,26.05
2023-05-21T16:52:23.971Z,26.00
2023-05-21T16:54:59.494Z,26.01
2023-05-21T16:57:35.272Z,25.98
2023-05-21T17:00:06.415Z,25.97
2023-05-21T17:02:36.585Z,25.94
2023-05-21T17:05:03.759Z,25.91
2023-05-21T17:07:33.954Z,25.90
2023-05-21T17:10:00.930Z,25.90
2023-05-21T17:12:30.486Z,25.89
2023-05-21T17:14:58.031Z,25.82
2023-05-21T17:17:24.993Z,25.77
2023-05-21T17:20:10.868Z,25.69
2023-05-21T17:22:39.599Z,25.74
2023-05-21T17:25:08.073Z,25.67
2023-05-21T17:27:35.219Z,25.65
2023-05-21T17:30:04.191Z,25.64
2023-05-21T17:32:33.697Z,25.58
2023-05-21T17:35:00.739Z,25.53
2023-05-21T17:37:28.644Z,25.49
2023-05-21T17:39:57.701Z,25.41
2023-05-21T17:42:24.867Z,25.35
2023-05-21T17:44:52.061Z,25.29
2023-05-21T17:47:28.257Z,25.19
2023-05-21T17:50:04.357Z,25.10
2023-05-21T17:52:31.416Z,25.04
2023-05-21T17:54:58.343Z,24.94
2023-05-21T17:57:25.259Z,24.87
2023-05-21T17:59:52.136Z,24.79
2023-05-21T18:02:18.988Z,24.73
2023-05-21T18:04:46.164Z,24.73
2023-05-21T18:07:13.015Z,24.57
2023-05-21T18:09:39.803Z,24.50
2023-05-21T18:12:07.886Z,24.41
2023-05-21T18:14:35.225Z,24.22
2023-05-21T18:17:02.283Z,24.13
2023-05-21T18:19:32.194Z,23.95
2023-05-21T18:21:59.014Z,23.80
2023-05-21T18:24:26.132Z,23.60
2023-05-21T18:26:54.027Z,23.50
2023-05-21T18:29:21.244Z,23.39
2023-05-21T18:31:48.239Z,23.29
2023-05-21T18:34:17.509Z,23.21
2023-05-21T18:36:44.747Z,23.13
2023-05-21T18:39:11.609Z,23.09
2023-05-21T18:41:39.877Z,22.96
2023-05-21T18:44:06.961Z,22.90
2023-05-21T18:46:34.321Z,22.91
2023-05-21T18:49:01.523Z,22.78
2023-05-21T18:51:28.599Z,22.71
2023-05-21T18:53:55.545Z,22.64
2023-05-21T18:56:22.651Z,22.59
2023-05-21T18:58:49.720Z,22.50
2023-05-21T19:01:18.177Z,22.45
2023-05-21T19:03:45.198Z,22.38
2023-05-21T19:06:12.154Z,22.31
2023-05-21T19:08:41.073Z,22.26
2023-05-21T19:11:08.797Z,22.22
2023-05-21T19:13:35.784Z,22.18
2023-05-21T19:16:02.826Z,22.16
2023-05-21T19:18:31.764Z,22.09
2023-05-21T19:21:00.322Z,22.07
2023-05-21T19:23:27.345Z,22.01
2023-05-21T19:25:54.451Z,21.96
2023-05-21T19:28:21.446Z,21.94
2023-05-21T19:30:48.359Z,21.92
2023-05-21T19:33:15.274Z,21.89
2023-05-21T19:35:43.366Z,21.84
2023-05-21T19:38:14.949Z,21.79
2023-05-21T19:40:41.840Z,21.78
2023-05-21T19:43:08.758Z,21.74
2023-05-21T19:45:35.792Z,21.70
2023-05-21T19:48:02.892Z,21.66
2023-05-21T19:50:29.829Z,21.62
2023-05-21T19:52:59.833Z,21.56
2023-05-21T19:55:28.486Z,21.59
2023-05-21T19:57:56.480Z,21.53
2023-05-21T20:00:23.424Z,21.50
2023-05-21T20:02:50.395Z,21.45
2023-05-21T20:05:18.627Z,21.40
2023-05-21T20:07:45.661Z,21.35
2023-05-21T20:10:12.494Z,21.33
2023-05-21T20:12:39.466Z,21.28
2023-05-21T20:15:07.104Z,21.24
2023-05-21T20:17:36.085Z,21.19
2023-05-21T20:20:06.201Z,21.17
2023-05-21T20:22:33.148Z,21.14
2023-05-21T20:25:01.780Z,21.12
2023-05-21T20:27:29.041Z,21.08
2023-05-21T20:29:56.146Z,21.05
2023-05-21T20:32:23.003Z,21.01
2023-05-21T20:35:02.207Z,20.98
2023-05-21T20:37:32.925Z,20.91
2023-05-21T20:40:00.099Z,20.90
2023-05-21T20:42:28.674Z,20.85
2023-05-21T20:44:58.906Z,20.80
2023-05-21T20:47:29.926Z,20.77
2023-05-21T20:49:59.081Z,20.72
2023-05-21T20:52:27.411Z,20.69
2023-05-21T20:54:59.727Z,20.67
2023-05-21T20:57:27.488Z,20.66
2023-05-21T20:59:54.811Z,20.66
2023-05-21T21:02:22.968Z,20.60
2023-05-21T21:04:50.908Z,20.60
2023-05-21T21:07:19.021Z,20.59
2023-05-21T21:09:46.789Z,20.58
2023-05-21T21:12:25.792Z,20.59
2023-05-21T21:14:53.588Z,20.58
2023-05-21T21:17:20.994Z,20.53
2023-05-21T21:19:48.145Z,20.52
2023-05-21T21:22:17.201Z,20.50
2023-05-21T21:24:44.578Z,20.52
2023-05-21T21:27:11.495Z,20.49
2023-05-21T21:29:39.836Z,20.44
2023-05-21T21:32:07.386Z,20.42
2023-05-21T21:34:34.241Z,20.44
2023-05-21T21:37:01.109Z,20.43
2023-05-21T21:39:28.026Z,20.40
2023-05-21T21:41:54.831Z,20.38
2023-05-21T21:44:21.702Z,20.34
2023-05-21T21:46:48.678Z,20.34
2023-05-21T21:49:17.464Z,20.28
2023-05-21T21:51:45.163Z,20.27
2023-05-21T21:54:12.478Z,20.24
2023-05-21T21:56:39.877Z,20.22
2023-05-21T21:59:06.776Z,20.19
2023-05-21T22:01:34.038Z,20.16
2023-05-21T22:04:01.072Z,20.16
2023-05-21T22:06:28.675Z,20.13
2023-05-21T22:08:55.807Z,20.12
2023-05-21T22:11:22.903Z,20.10
2023-05-21T22:13:49.823Z,20.07
2023-05-21T22:16:16.810Z,20.04
2023-05-21T22:18:43.769Z,20.00
2023-05-21T22:21:14.286Z,19.98
2023-05-21T22:23:41.539Z,19.92
2023-05-21T22:26:09.357Z,19.89
2023-05-21T22:28:36.356Z,19.86
2023-05-21T22:31:03.500Z,19.84
2023-05-21T22:33:30.602Z,19.81
2023-05-21T22:35:58.164Z,19.78
2023-05-21T22:38:25.925Z,19.77
2023-05-21T22:40:52.837Z,19.72
2023-05-21T22:43:19.856Z,19.72
2023-05-21T22:45:47.114Z,19.74
2023-05-21T22:48:14.464Z,19.72
2023-05-21T22:50:41.582Z,19.73
2023-05-21T22:53:08.691Z,19.74
2023-05-21T22:55:35.819Z,19.77
2023-05-21T22:58:03.071Z,19.76
2023-05-21T23:00:30.123Z,19.79
2023-05-21T23:02:57.220Z,19.78
2023-05-21T23:05:24.604Z,19.78
2023-05-21T23:07:52.646Z,19.78
2023-05-21T23:10:20.055Z,19.78
2023-05-21T23:12:47.889Z,19.79
2023-05-21T23:15:16.545Z,19.76
2023-05-21T23:17:43.935Z,19.79
2023-05-21T23:20:11.220Z,19.77
2023-05-21T23:22:38.194Z,19.74
2023-05-21T23:25:05.393Z,19.73
2023-05-21T23:27:33.470Z,19.71
2023-05-21T23:30:01.521Z,19.69
2023-05-21T23:32:32.953Z,19.69
2023-05-21T23:34:59.792Z,19.67
2023-05-21T23:37:26.681Z,19.64
2023-05-21T23:39:53.502Z,19.64
2023-05-21T23:42:20.698Z,19.63
2023-05-21T23:44:47.719Z,19.62
2023-05-21T23:47:14.751Z,19.62
2023-05-21T23:49:41.625Z,19.61
2023-05-21T23:52:08.932Z,19.60
2023-05-21T23:54:35.808Z,19.57
2023-05-21T23:57:02.657Z,19.57
2023-05-21T23:59:29.534Z,19.54
